Honey Creek, Illinois
Current Conditions -  °F | °C
As of 12:15 AM on Monday 26 Jan 2015 (Local Time) from KRPJ Reporting Station
Clear Clear  
Wind Chill: -14°   Ceiling: Unl
Heat Index: -9°   Visibility: 10mi
Dew Point: -11°   Wind: 7mph
Humidity: 84%   Direction: 340°NNW
Pressure: 30.02"   Gusts: NA
Location:  41.9937°N, 89.1961°W
Report Text: KRPJ 260615Z AUTO 34006KT 10SM CLR M09/M11 A3002 RMK AO2 T10871110
Loading
Personal Weather Stations






























Interactive Weather Map New forecast layout! Learn more

10-Day Weather Forecast

Advertisements
Track Severe Weather on mobile